sensor_id;sensor_type;location;lat;lon;timestamp;temperature;humidity
78212;SHT31;67490;52.086;5.122;2023-11-21T00:01:30;14.25;66.59
78212;SHT31;67490;52.086;5.122;2023-11-21T00:04:16;14.21;66.40
78212;SHT31;67490;52.086;5.122;2023-11-21T00:07:00;14.21;66.83
78212;SHT31;67490;52.086;5.122;2023-11-21T00:09:45;14.24;66.98
78212;SHT31;67490;52.086;5.122;2023-11-21T00:12:29;14.28;66.67
78212;SHT31;67490;52.086;5.122;2023-11-21T00:15:13;14.25;66.79
78212;SHT31;67490;52.086;5.122;2023-11-21T00:17:58;14.27;66.45
78212;SHT31;67490;52.086;5.122;2023-11-21T00:20:44;14.28;66.43
78212;SHT31;67490;52.086;5.122;2023-11-21T00:23:28;14.25;66.79
78212;SHT31;67490;52.086;5.122;2023-11-21T00:26:13;14.31;66.36
78212;SHT31;67490;52.086;5.122;2023-11-21T00:28:58;14.35;66.17
78212;SHT31;67490;52.086;5.122;2023-11-21T00:31:42;14.39;66.03
78212;SHT31;67490;52.086;5.122;2023-11-21T00:34:27;14.45;65.65
78212;SHT31;67490;52.086;5.122;2023-11-21T00:37:13;14.46;65.28
78212;SHT31;67490;52.086;5.122;2023-11-21T00:39:58;14.42;65.37
78212;SHT31;67490;52.086;5.122;2023-11-21T00:42:42;14.34;65.68
78212;SHT31;67490;52.086;5.122;2023-11-21T00:45:28;14.34;65.52
78212;SHT31;67490;52.086;5.122;2023-11-21T00:48:12;14.28;65.68
78212;SHT31;67490;52.086;5.122;2023-11-21T00:50:57;14.22;65.50
78212;SHT31;67490;52.086;5.122;2023-11-21T00:53:43;14.22;65.85
78212;SHT31;67490;52.086;5.122;2023-11-21T00:56:27;14.20;65.82
78212;SHT31;67490;52.086;5.122;2023-11-21T00:59:12;14.13;65.82
78212;SHT31;67490;52.086;5.122;2023-11-21T01:01:56;14.07;66.19
78212;SHT31;67490;52.086;5.122;2023-11-21T01:04:40;13.97;66.42
78212;SHT31;67490;52.086;5.122;2023-11-21T01:07:24;14.03;66.44
78212;SHT31;67490;52.086;5.122;2023-11-21T01:10:10;13.96;66.50
78212;SHT31;67490;52.086;5.122;2023-11-21T01:12:54;14.08;66.37
78212;SHT31;67490;52.086;5.122;2023-11-21T01:15:39;14.14;66.10
78212;SHT31;67490;52.086;5.122;2023-11-21T01:18:23;14.21;65.98
78212;SHT31;67490;52.086;5.122;2023-11-21T01:21:09;14.18;65.90
78212;SHT31;67490;52.086;5.122;2023-11-21T01:23:54;14.20;65.74
78212;SHT31;67490;52.086;5.122;2023-11-21T01:26:40;14.18;65.77
78212;SHT31;67490;52.086;5.122;2023-11-21T01:29:25;14.20;66.00
78212;SHT31;67490;52.086;5.122;2023-11-21T01:32:09;14.21;65.92
78212;SHT31;67490;52.086;5.122;2023-11-21T01:34:54;14.21;66.10
78212;SHT31;67490;52.086;5.122;2023-11-21T01:37:39;14.24;66.13
78212;SHT31;67490;52.086;5.122;2023-11-21T01:40:23;14.29;65.99
78212;SHT31;67490;52.086;5.122;2023-11-21T01:43:09;14.29;65.99
78212;SHT31;67490;52.086;5.122;2023-11-21T01:45:54;14.25;66.14
78212;SHT31;67490;52.086;5.122;2023-11-21T01:48:41;14.28;65.98
78212;SHT31;67490;52.086;5.122;2023-11-21T01:51:26;14.37;65.90
78212;SHT31;67490;52.086;5.122;2023-11-21T01:54:11;14.44;66.03
78212;SHT31;67490;52.086;5.122;2023-11-21T01:56:57;14.38;66.22
78212;SHT31;67490;52.086;5.122;2023-11-21T01:59:48;14.48;65.98
78212;SHT31;67490;52.086;5.122;2023-11-21T02:02:33;14.54;65.62
78212;SHT31;67490;52.086;5.122;2023-11-21T02:05:19;14.55;65.39
78212;SHT31;67490;52.086;5.122;2023-11-21T02:08:03;14.48;65.58
78212;SHT31;67490;52.086;5.122;2023-11-21T02:10:48;14.44;66.00
78212;SHT31;67490;52.086;5.122;2023-11-21T02:13:33;14.46;66.19
78212;SHT31;67490;52.086;5.122;2023-11-21T02:16:18;14.51;66.34
78212;SHT31;67490;52.086;5.122;2023-11-21T02:19:07;14.52;65.95
78212;SHT31;67490;52.086;5.122;2023-11-21T02:21:53;14.58;65.91
78212;SHT31;67490;52.086;5.122;2023-11-21T02:24:41;14.59;66.13
78212;SHT31;67490;52.086;5.122;2023-11-21T02:27:26;14.65;66.08
78212;SHT31;67490;52.086;5.122;2023-11-21T02:30:12;14.71;66.01
78212;SHT31;67490;52.086;5.122;2023-11-21T02:32:58;14.73;65.55
78212;SHT31;67490;52.086;5.122;2023-11-21T02:35:42;14.76;65.72
78212;SHT31;67490;52.086;5.122;2023-11-21T02:38:27;14.75;65.56
78212;SHT31;67490;52.086;5.122;2023-11-21T02:41:13;14.78;65.81
78212;SHT31;67490;52.086;5.122;2023-11-21T02:43:57;14.78;65.54
78212;SHT31;67490;52.086;5.122;2023-11-21T02:46:42;14.79;65.89
78212;SHT31;67490;52.086;5.122;2023-11-21T02:49:26;14.85;65.90
78212;SHT31;67490;52.086;5.122;2023-11-21T02:52:15;14.87;65.62
78212;SHT31;67490;52.086;5.122;2023-11-21T02:54:59;14.86;65.69
78212;SHT31;67490;52.086;5.122;2023-11-21T02:57:45;14.87;66.00
78212;SHT31;67490;52.086;5.122;2023-11-21T03:00:29;14.92;65.83
78212;SHT31;67490;52.086;5.122;2023-11-21T03:03:14;14.97;65.71
78212;SHT31;67490;52.086;5.122;2023-11-21T03:05:58;15.07;65.35
78212;SHT31;67490;52.086;5.122;2023-11-21T03:08:42;15.09;65.17
78212;SHT31;67490;52.086;5.122;2023-11-21T03:11:27;15.10;65.21
78212;SHT31;67490;52.086;5.122;2023-11-21T03:14:13;15.03;65.19
78212;SHT31;67490;52.086;5.122;2023-11-21T03:16:58;15.00;65.38
78212;SHT31;67490;52.086;5.122;2023-11-21T03:19:42;15.04;65.28
78212;SHT31;67490;52.086;5.122;2023-11-21T03:22:26;15.06;65.41
78212;SHT31;67490;52.086;5.122;2023-11-21T03:25:11;15.06;65.15
78212;SHT31;67490;52.086;5.122;2023-11-21T03:27:55;15.09;65.23
78212;SHT31;67490;52.086;5.122;2023-11-21T03:30:41;15.06;65.27
78212;SHT31;67490;52.086;5.122;2023-11-21T03:33:26;15.02;65.23
78212;SHT31;67490;52.086;5.122;2023-11-21T03:36:10;15.02;65.34
78212;SHT31;67490;52.086;5.122;2023-11-21T03:38:55;15.06;65.08
78212;SHT31;67490;52.086;5.122;2023-11-21T03:41:40;15.04;64.89
78212;SHT31;67490;52.086;5.122;2023-11-21T03:44:24;15.04;65.12
78212;SHT31;67490;52.086;5.122;2023-11-21T03:47:09;15.04;65.24
78212;SHT31;67490;52.086;5.122;2023-11-21T03:49:53;15.02;65.20
78212;SHT31;67490;52.086;5.122;2023-11-21T03:52:37;14.97;65.40
78212;SHT31;67490;52.086;5.122;2023-11-21T03:55:22;14.97;65.49
78212;SHT31;67490;52.086;5.122;2023-11-21T03:58:10;14.95;65.72
78212;SHT31;67490;52.086;5.122;2023-11-21T04:00:54;15.00;65.76
78212;SHT31;67490;52.086;5.122;2023-11-21T04:03:39;15.00;66.15
78212;SHT31;67490;52.086;5.122;2023-11-21T04:06:24;15.04;65.47
78212;SHT31;67490;52.086;5.122;2023-11-21T04:09:09;15.06;65.20
78212;SHT31;67490;52.086;5.122;2023-11-21T04:11:53;15.07;65.55
78212;SHT31;67490;52.086;5.122;2023-11-21T04:14:38;15.06;65.70
78212;SHT31;67490;52.086;5.122;2023-11-21T04:17:22;15.02;65.64
78212;SHT31;67490;52.086;5.122;2023-11-21T04:20:08;15.04;65.52
78212;SHT31;67490;52.086;5.122;2023-11-21T04:22:53;15.06;65.63
78212;SHT31;67490;52.086;5.122;2023-11-21T04:25:38;15.04;65.85
78212;SHT31;67490;52.086;5.122;2023-11-21T04:28:22;15.13;65.91
78212;SHT31;67490;52.086;5.122;2023-11-21T04:31:06;15.16;65.82
78212;SHT31;67490;52.086;5.122;2023-11-21T04:33:51;15.20;65.44
78212;SHT31;67490;52.086;5.122;2023-11-21T04:36:37;15.24;65.63
78212;SHT31;67490;52.086;5.122;2023-11-21T04:39:21;15.27;65.87
78212;SHT31;67490;52.086;5.122;2023-11-21T04:42:06;15.36;65.80
78212;SHT31;67490;52.086;5.122;2023-11-21T04:44:50;15.38;65.39
78212;SHT31;67490;52.086;5.122;2023-11-21T04:47:36;15.40;65.78
78212;SHT31;67490;52.086;5.122;2023-11-21T04:50:20;15.44;65.76
78212;SHT31;67490;52.086;5.122;2023-11-21T04:53:06;15.40;65.76
78212;SHT31;67490;52.086;5.122;2023-11-21T04:55:51;15.37;66.03
78212;SHT31;67490;52.086;5.122;2023-11-21T04:58:35;15.41;66.53
78212;SHT31;67490;52.086;5.122;2023-11-21T05:01:20;15.43;66.25
78212;SHT31;67490;52.086;5.122;2023-11-21T05:04:05;15.44;66.47
78212;SHT31;67490;52.086;5.122;2023-11-21T05:06:50;15.43;66.52
78212;SHT31;67490;52.086;5.122;2023-11-21T05:09:36;15.44;66.41
78212;SHT31;67490;52.086;5.122;2023-11-21T05:12:22;15.44;66.60
78212;SHT31;67490;52.086;5.122;2023-11-21T05:15:09;15.47;66.66
78212;SHT31;67490;52.086;5.122;2023-11-21T05:17:54;15.57;66.58
78212;SHT31;67490;52.086;5.122;2023-11-21T05:20:39;15.59;66.14
78212;SHT31;67490;52.086;5.122;2023-11-21T05:23:24;15.61;66.56
78212;SHT31;67490;52.086;5.122;2023-11-21T05:26:10;15.62;66.22
78212;SHT31;67490;52.086;5.122;2023-11-21T05:28:54;15.59;66.43
78212;SHT31;67490;52.086;5.122;2023-11-21T05:31:38;15.57;66.33
78212;SHT31;67490;52.086;5.122;2023-11-21T05:34:23;15.57;66.48
78212;SHT31;67490;52.086;5.122;2023-11-21T05:37:08;15.65;66.33
78212;SHT31;67490;52.086;5.122;2023-11-21T05:39:52;15.67;66.16
78212;SHT31;67490;52.086;5.122;2023-11-21T05:42:39;15.65;66.05
78212;SHT31;67490;52.086;5.122;2023-11-21T05:45:24;15.59;66.30
78212;SHT31;67490;52.086;5.122;2023-11-21T05:48:09;15.61;66.30
78212;SHT31;67490;52.086;5.122;2023-11-21T05:50:53;15.59;66.41
78212;SHT31;67490;52.086;5.122;2023-11-21T05:53:37;15.62;66.53
78212;SHT31;67490;52.086;5.122;2023-11-21T05:56:22;15.62;66.55
78212;SHT31;67490;52.086;5.122;2023-11-21T05:59:08;15.69;66.54
78212;SHT31;67490;52.086;5.122;2023-11-21T06:01:52;15.72;66.48
78212;SHT31;67490;52.086;5.122;2023-11-21T06:04:37;15.69;66.50
78212;SHT31;67490;52.086;5.122;2023-11-21T06:07:21;15.71;66.79
78212;SHT31;67490;52.086;5.122;2023-11-21T06:10:07;15.74;66.85
78212;SHT31;67490;52.086;5.122;2023-11-21T06:12:55;15.58;67.14
78212;SHT31;67490;52.086;5.122;2023-11-21T06:15:41;15.77;66.73
78212;SHT31;67490;52.086;5.122;2023-11-21T06:18:26;15.64;67.06
78212;SHT31;67490;52.086;5.122;2023-11-21T06:21:10;15.58;67.27
78212;SHT31;67490;52.086;5.122;2023-11-21T06:23:54;15.79;66.63
78212;SHT31;67490;52.086;5.122;2023-11-21T06:26:40;15.82;66.37
78212;SHT31;67490;52.086;5.122;2023-11-21T06:29:25;15.81;66.87
78212;SHT31;67490;52.086;5.122;2023-11-21T06:32:13;15.85;66.41
78212;SHT31;67490;52.086;5.122;2023-11-21T06:35:00;15.88;66.73
78212;SHT31;67490;52.086;5.122;2023-11-21T06:37:44;15.59;67.44
78212;SHT31;67490;52.086;5.122;2023-11-21T06:40:32;15.78;66.60
78212;SHT31;67490;52.086;5.122;2023-11-21T06:43:17;15.64;67.32
78212;SHT31;67490;52.086;5.122;2023-11-21T06:46:02;15.67;67.16
78212;SHT31;67490;52.086;5.122;2023-11-21T06:48:47;15.69;66.99
78212;SHT31;67490;52.086;5.122;2023-11-21T06:51:33;15.71;67.14
78212;SHT31;67490;52.086;5.122;2023-11-21T06:54:18;15.68;67.13
78212;SHT31;67490;52.086;5.122;2023-11-21T06:57:03;15.71;67.31
78212;SHT31;67490;52.086;5.122;2023-11-21T06:59:48;15.69;67.46
78212;SHT31;67490;52.086;5.122;2023-11-21T07:02:33;15.82;66.80
78212;SHT31;67490;52.086;5.122;2023-11-21T07:05:19;15.86;66.98
78212;SHT31;67490;52.086;5.122;2023-11-21T07:08:05;15.86;67.02
78212;SHT31;67490;52.086;5.122;2023-11-21T07:10:51;15.86;66.67
78212;SHT31;67490;52.086;5.122;2023-11-21T07:13:35;15.81;67.16
78212;SHT31;67490;52.086;5.122;2023-11-21T07:16:19;15.88;67.84
78212;SHT31;67490;52.086;5.122;2023-11-21T07:19:04;15.84;67.78
78212;SHT31;67490;52.086;5.122;2023-11-21T07:21:51;15.84;67.50
78212;SHT31;67490;52.086;5.122;2023-11-21T07:24:36;15.88;67.64
78212;SHT31;67490;52.086;5.122;2023-11-21T07:27:21;15.85;67.86
78212;SHT31;67490;52.086;5.122;2023-11-21T07:30:06;15.88;67.54
78212;SHT31;67490;52.086;5.122;2023-11-21T07:32:52;15.77;67.99
78212;SHT31;67490;52.086;5.122;2023-11-21T07:35:36;15.75;68.19
78212;SHT31;67490;52.086;5.122;2023-11-21T07:38:22;15.77;68.16
78212;SHT31;67490;52.086;5.122;2023-11-21T07:41:07;15.81;68.12
78212;SHT31;67490;52.086;5.122;2023-11-21T07:43:52;15.86;67.80
78212;SHT31;67490;52.086;5.122;2023-11-21T07:46:37;15.84;67.86
78212;SHT31;67490;52.086;5.122;2023-11-21T07:49:21;15.86;67.82
78212;SHT31;67490;52.086;5.122;2023-11-21T07:52:07;15.79;68.11
78212;SHT31;67490;52.086;5.122;2023-11-21T07:54:52;15.51;69.03
78212;SHT31;67490;52.086;5.122;2023-11-21T07:57:38;15.59;68.80
78212;SHT31;67490;52.086;5.122;2023-11-21T08:00:23;15.68;69.49
78212;SHT31;67490;52.086;5.122;2023-11-21T08:03:08;15.61;68.71
78212;SHT31;67490;52.086;5.122;2023-11-21T08:05:52;15.50;69.09
78212;SHT31;67490;52.086;5.122;2023-11-21T08:08:37;15.50;69.66
78212;SHT31;67490;52.086;5.122;2023-11-21T08:11:23;15.53;69.75
78212;SHT31;67490;52.086;5.122;2023-11-21T08:14:08;15.23;69.52
78212;SHT31;67490;52.086;5.122;2023-11-21T08:16:52;15.04;71.28
78212;SHT31;67490;52.086;5.122;2023-11-21T08:19:41;15.14;70.92
78212;SHT31;67490;52.086;5.122;2023-11-21T08:22:25;15.24;70.91
78212;SHT31;67490;52.086;5.122;2023-11-21T08:25:10;15.50;70.04
78212;SHT31;67490;52.086;5.122;2023-11-21T08:27:56;15.47;70.03
78212;SHT31;67490;52.086;5.122;2023-11-21T08:30:41;15.27;70.26
78212;SHT31;67490;52.086;5.122;2023-11-21T08:33:26;15.14;71.13
78212;SHT31;67490;52.086;5.122;2023-11-21T08:36:10;14.96;71.81
78212;SHT31;67490;52.086;5.122;2023-11-21T08:38:55;14.73;72.10
78212;SHT31;67490;52.086;5.122;2023-11-21T08:41:40;14.83;72.06
78212;SHT31;67490;52.086;5.122;2023-11-21T08:44:26;14.86;72.49
78212;SHT31;67490;52.086;5.122;2023-11-21T08:47:12;14.45;73.78
78212;SHT31;67490;52.086;5.122;2023-11-21T08:49:56;14.79;73.13
78212;SHT31;67490;52.086;5.122;2023-11-21T08:52:44;15.06;71.99
78212;SHT31;67490;52.086;5.122;2023-11-21T08:55:29;15.10;72.35
78212;SHT31;67490;52.086;5.122;2023-11-21T08:58:14;15.11;72.52
78212;SHT31;67490;52.086;5.122;2023-11-21T09:01:00;15.36;71.88
78212;SHT31;67490;52.086;5.122;2023-11-21T09:03:45;15.07;71.71
78212;SHT31;67490;52.086;5.122;2023-11-21T09:06:29;14.90;73.06
78212;SHT31;67490;52.086;5.122;2023-11-21T09:09:13;14.90;72.66
78212;SHT31;67490;52.086;5.122;2023-11-21T09:11:59;15.14;71.95
78212;SHT31;67490;52.086;5.122;2023-11-21T09:14:46;15.44;71.43
78212;SHT31;67490;52.086;5.122;2023-11-21T09:17:32;15.46;71.44
78212;SHT31;67490;52.086;5.122;2023-11-21T09:20:18;15.43;70.87
78212;SHT31;67490;52.086;5.122;2023-11-21T09:23:03;15.30;71.49
78212;SHT31;67490;52.086;5.122;2023-11-21T09:25:47;14.99;72.23
78212;SHT31;67490;52.086;5.122;2023-11-21T09:28:33;15.26;72.37
78212;SHT31;67490;52.086;5.122;2023-11-21T09:31:18;15.04;72.29
78212;SHT31;67490;52.086;5.122;2023-11-21T09:34:08;14.90;72.02
78212;SHT31;67490;52.086;5.122;2023-11-21T09:36:53;14.96;72.41
78212;SHT31;67490;52.086;5.122;2023-11-21T09:39:37;14.86;72.01
78212;SHT31;67490;52.086;5.122;2023-11-21T09:42:28;14.92;72.63
78212;SHT31;67490;52.086;5.122;2023-11-21T09:45:18;15.38;71.69
78212;SHT31;67490;52.086;5.122;2023-11-21T09:48:08;15.53;70.13
78212;SHT31;67490;52.086;5.122;2023-11-21T09:50:59;15.59;70.16
78212;SHT31;67490;52.086;5.122;2023-11-21T09:53:49;15.40;70.26
78212;SHT31;67490;52.086;5.122;2023-11-21T09:56:33;15.06;71.10
78212;SHT31;67490;52.086;5.122;2023-11-21T09:59:18;14.83;72.21
78212;SHT31;67490;52.086;5.122;2023-11-21T10:02:03;14.78;71.81
78212;SHT31;67490;52.086;5.122;2023-11-21T10:04:48;14.69;72.56
78212;SHT31;67490;52.086;5.122;2023-11-21T10:07:34;14.72;72.27
78212;SHT31;67490;52.086;5.122;2023-11-21T10:10:20;14.55;72.79
78212;SHT31;67490;52.086;5.122;2023-11-21T10:13:06;14.66;72.74
78212;SHT31;67490;52.086;5.122;2023-11-21T10:15:55;15.04;72.26
78212;SHT31;67490;52.086;5.122;2023-11-21T10:18:40;15.03;71.77
78212;SHT31;67490;52.086;5.122;2023-11-21T10:21:25;15.20;71.64
78212;SHT31;67490;52.086;5.122;2023-11-21T10:24:10;14.99;71.64
78212;SHT31;67490;52.086;5.122;2023-11-21T10:26:56;15.23;71.27
78212;SHT31;67490;52.086;5.122;2023-11-21T10:29:40;15.23;70.93
78212;SHT31;67490;52.086;5.122;2023-11-21T10:32:28;15.43;70.26
78212;SHT31;67490;52.086;5.122;2023-11-21T10:35:12;15.22;70.25
78212;SHT31;67490;52.086;5.122;2023-11-21T10:38:02;14.92;70.82
78212;SHT31;67490;52.086;5.122;2023-11-21T10:40:49;15.24;69.06
78212;SHT31;67490;52.086;5.122;2023-11-21T10:43:35;15.27;68.82
78212;SHT31;67490;52.086;5.122;2023-11-21T10:46:19;14.97;68.98
78212;SHT31;67490;52.086;5.122;2023-11-21T10:49:04;14.92;69.53
78212;SHT31;67490;52.086;5.122;2023-11-21T10:51:48;14.76;69.85
78212;SHT31;67490;52.086;5.122;2023-11-21T10:54:33;14.89;69.27
78212;SHT31;67490;52.086;5.122;2023-11-21T10:57:22;15.24;69.24
78212;SHT31;67490;52.086;5.122;2023-11-21T11:00:08;14.90;68.96
78212;SHT31;67490;52.086;5.122;2023-11-21T11:02:57;14.87;69.98
78212;SHT31;67490;52.086;5.122;2023-11-21T11:05:43;14.59;70.65
78212;SHT31;67490;52.086;5.122;2023-11-21T11:08:35;14.59;70.31
78212;SHT31;67490;52.086;5.122;2023-11-21T11:11:20;14.73;70.77
78212;SHT31;67490;52.086;5.122;2023-11-21T11:14:08;14.72;70.72
78212;SHT31;67490;52.086;5.122;2023-11-21T11:16:54;14.73;69.87
78212;SHT31;67490;52.086;5.122;2023-11-21T11:19:42;14.61;70.35
78212;SHT31;67490;52.086;5.122;2023-11-21T11:22:37;14.62;70.89
78212;SHT31;67490;52.086;5.122;2023-11-21T11:25:38;14.65;70.68
78212;SHT31;67490;52.086;5.122;2023-11-21T11:28:38;14.86;70.39
78212;SHT31;67490;52.086;5.122;2023-11-21T11:31:39;14.96;69.68
78212;SHT31;67490;52.086;5.122;2023-11-21T11:34:30;14.76;69.81
78212;SHT31;67490;52.086;5.122;2023-11-21T11:37:20;14.86;69.60
78212;SHT31;67490;52.086;5.122;2023-11-21T11:40:06;14.99;69.92
78212;SHT31;67490;52.086;5.122;2023-11-21T11:42:57;15.16;69.32
78212;SHT31;67490;52.086;5.122;2023-11-21T11:45:43;15.04;69.61
78212;SHT31;67490;52.086;5.122;2023-11-21T11:48:29;15.30;68.87
78212;SHT31;67490;52.086;5.122;2023-11-21T11:51:15;15.02;69.06
78212;SHT31;67490;52.086;5.122;2023-11-21T11:54:01;14.99;69.41
78212;SHT31;67490;52.086;5.122;2023-11-21T11:56:47;15.00;69.42
78212;SHT31;67490;52.086;5.122;2023-11-21T12:00:13;15.02;69.24
78212;SHT31;67490;52.086;5.122;2023-11-21T12:03:06;14.99;69.74
78212;SHT31;67490;52.086;5.122;2023-11-21T12:05:53;15.04;69.65
78212;SHT31;67490;52.086;5.122;2023-11-21T12:08:43;15.36;69.15
78212;SHT31;67490;52.086;5.122;2023-11-21T12:11:30;15.30;68.64
78212;SHT31;67490;52.086;5.122;2023-11-21T12:14:16;14.73;70.36
78212;SHT31;67490;52.086;5.122;2023-11-21T12:17:01;14.86;70.10
78212;SHT31;67490;52.086;5.122;2023-11-21T12:19:46;15.02;69.58
78212;SHT31;67490;52.086;5.122;2023-11-21T12:22:33;15.06;69.55
78212;SHT31;67490;52.086;5.122;2023-11-21T12:25:19;15.09;68.60
78212;SHT31;67490;52.086;5.122;2023-11-21T12:28:04;15.22;68.66
78212;SHT31;67490;52.086;5.122;2023-11-21T12:30:49;15.27;68.94
78212;SHT31;67490;52.086;5.122;2023-11-21T12:33:34;15.22;68.53
78212;SHT31;67490;52.086;5.122;2023-11-21T12:36:19;15.34;67.97
78212;SHT31;67490;52.086;5.122;2023-11-21T12:39:05;14.80;69.10
78212;SHT31;67490;52.086;5.122;2023-11-21T12:41:53;14.49;69.91
78212;SHT31;67490;52.086;5.122;2023-11-21T12:44:38;14.75;69.11
78212;SHT31;67490;52.086;5.122;2023-11-21T12:47:24;14.92;69.15
78212;SHT31;67490;52.086;5.122;2023-11-21T12:50:09;14.78;69.11
78212;SHT31;67490;52.086;5.122;2023-11-21T12:53:02;14.69;69.18
78212;SHT31;67490;52.086;5.122;2023-11-21T12:55:48;14.85;69.40
78212;SHT31;67490;52.086;5.122;2023-11-21T12:58:35;15.20;68.62
78212;SHT31;67490;52.086;5.122;2023-11-21T13:01:20;15.17;68.37
78212;SHT31;67490;52.086;5.122;2023-11-21T13:04:07;14.58;69.61
78212;SHT31;67490;52.086;5.122;2023-11-21T13:06:54;15.17;68.00
78212;SHT31;67490;52.086;5.122;2023-11-21T13:09:40;14.59;68.40
78212;SHT31;67490;52.086;5.122;2023-11-21T13:12:26;14.35;70.13
78212;SHT31;67490;52.086;5.122;2023-11-21T13:15:14;14.68;69.48
78212;SHT31;67490;52.086;5.122;2023-11-21T13:17:59;15.00;68.58
78212;SHT31;67490;52.086;5.122;2023-11-21T13:20:43;15.03;68.31
78212;SHT31;67490;52.086;5.122;2023-11-21T13:23:28;15.10;68.26
78212;SHT31;67490;52.086;5.122;2023-11-21T13:26:13;15.14;67.73
78212;SHT31;67490;52.086;5.122;2023-11-21T13:29:00;15.30;67.81
78212;SHT31;67490;52.086;5.122;2023-11-21T13:31:45;15.38;67.47
78212;SHT31;67490;52.086;5.122;2023-11-21T13:34:30;15.02;68.78
78212;SHT31;67490;52.086;5.122;2023-11-21T13:37:15;14.65;70.07
78212;SHT31;67490;52.086;5.122;2023-11-21T13:39:59;14.80;69.78
78212;SHT31;67490;52.086;5.122;2023-11-21T13:42:44;14.92;68.71
78212;SHT31;67490;52.086;5.122;2023-11-21T13:45:30;14.79;69.29
78212;SHT31;67490;52.086;5.122;2023-11-21T13:48:15;14.69;69.78
78212;SHT31;67490;52.086;5.122;2023-11-21T13:51:03;14.85;69.23
78212;SHT31;67490;52.086;5.122;2023-11-21T13:53:57;14.90;69.52
78212;SHT31;67490;52.086;5.122;2023-11-21T13:56:43;14.92;69.02
78212;SHT31;67490;52.086;5.122;2023-11-21T13:59:30;14.69;70.36
78212;SHT31;67490;52.086;5.122;2023-11-21T14:02:17;14.51;70.53
78212;SHT31;67490;52.086;5.122;2023-11-21T14:05:04;15.03;71.27
78212;SHT31;67490;52.086;5.122;2023-11-21T14:07:53;15.03;70.10
78212;SHT31;67490;52.086;5.122;2023-11-21T14:10:39;15.16;69.16
78212;SHT31;67490;52.086;5.122;2023-11-21T14:13:27;15.02;69.55
78212;SHT31;67490;52.086;5.122;2023-11-21T14:16:12;14.71;69.91
78212;SHT31;67490;52.086;5.122;2023-11-21T14:18:59;14.89;69.32
78212;SHT31;67490;52.086;5.122;2023-11-21T14:21:53;15.04;68.73
78212;SHT31;67490;52.086;5.122;2023-11-21T14:24:37;15.04;68.63
78212;SHT31;67490;52.086;5.122;2023-11-21T14:27:28;14.86;69.17
78212;SHT31;67490;52.086;5.122;2023-11-21T14:30:13;14.97;68.91
78212;SHT31;67490;52.086;5.122;2023-11-21T14:32:57;14.42;69.29
78212;SHT31;67490;52.086;5.122;2023-11-21T14:35:43;14.27;69.08
78212;SHT31;67490;52.086;5.122;2023-11-21T14:38:28;14.13;70.06
78212;SHT31;67490;52.086;5.122;2023-11-21T14:41:12;14.07;70.32
78212;SHT31;67490;52.086;5.122;2023-11-21T14:43:58;13.90;70.59
78212;SHT31;67490;52.086;5.122;2023-11-21T14:46:43;13.93;70.82
78212;SHT31;67490;52.086;5.122;2023-11-21T14:49:30;13.94;70.12
78212;SHT31;67490;52.086;5.122;2023-11-21T14:52:25;13.69;70.35
78212;SHT31;67490;52.086;5.122;2023-11-21T14:55:17;14.03;69.21
78212;SHT31;67490;52.086;5.122;2023-11-21T14:58:16;13.48;69.67
78212;SHT31;67490;52.086;5.122;2023-11-21T15:01:10;13.74;69.17
78212;SHT31;67490;52.086;5.122;2023-11-21T15:03:55;13.76;69.29
78212;SHT31;67490;52.086;5.122;2023-11-21T15:06:39;13.84;68.66
78212;SHT31;67490;52.086;5.122;2023-11-21T15:09:28;13.83;67.97
78212;SHT31;67490;52.086;5.122;2023-11-21T15:12:12;13.94;68.29
78212;SHT31;67490;52.086;5.122;2023-11-21T15:14:59;13.89;67.77
78212;SHT31;67490;52.086;5.122;2023-11-21T15:17:44;13.45;68.69
78212;SHT31;67490;52.086;5.122;2023-11-21T15:20:29;13.45;68.88
78212;SHT31;67490;52.086;5.122;2023-11-21T15:23:14;13.46;68.88
78212;SHT31;67490;52.086;5.122;2023-11-21T15:26:02;14.04;67.55
78212;SHT31;67490;52.086;5.122;2023-11-21T15:28:48;13.90;67.70
78212;SHT31;67490;52.086;5.122;2023-11-21T15:31:32;14.04;67.51
78212;SHT31;67490;52.086;5.122;2023-11-21T15:34:17;13.94;67.18
78212;SHT31;67490;52.086;5.122;2023-11-21T15:37:03;13.59;67.75
78212;SHT31;67490;52.086;5.122;2023-11-21T15:39:47;13.63;67.28
78212;SHT31;67490;52.086;5.122;2023-11-21T15:42:33;13.56;68.07
78212;SHT31;67490;52.086;5.122;2023-11-21T15:45:19;13.77;67.14
78212;SHT31;67490;52.086;5.122;2023-11-21T15:48:07;13.52;66.79
78212;SHT31;67490;52.086;5.122;2023-11-21T15:50:53;13.65;66.84
78212;SHT31;67490;52.086;5.122;2023-11-21T15:53:41;13.76;67.10
78212;SHT31;67490;52.086;5.122;2023-11-21T15:56:25;13.90;65.56
78212;SHT31;67490;52.086;5.122;2023-11-21T15:59:12;13.40;66.74
78212;SHT31;67490;52.086;5.122;2023-11-21T16:01:56;12.92;67.44
78212;SHT31;67490;52.086;5.122;2023-11-21T16:04:41;13.02;67.75
78212;SHT31;67490;52.086;5.122;2023-11-21T16:07:26;12.53;69.08
78212;SHT31;67490;52.086;5.122;2023-11-21T16:10:11;12.84;67.58
78212;SHT31;67490;52.086;5.122;2023-11-21T16:12:58;12.97;67.79
78212;SHT31;67490;52.086;5.122;2023-11-21T16:15:44;12.91;67.91
78212;SHT31;67490;52.086;5.122;2023-11-21T16:18:29;13.04;67.64
78212;SHT31;67490;52.086;5.122;2023-11-21T16:21:13;12.98;67.62
78212;SHT31;67490;52.086;5.122;2023-11-21T16:23:59;12.98;67.28
78212;SHT31;67490;52.086;5.122;2023-11-21T16:26:44;13.00;67.42
78212;SHT31;67490;52.086;5.122;2023-11-21T16:29:29;13.22;65.87
78212;SHT31;67490;52.086;5.122;2023-11-21T16:32:18;13.40;65.52
78212;SHT31;67490;52.086;5.122;2023-11-21T16:35:05;13.31;65.45
78212;SHT31;67490;52.086;5.122;2023-11-21T16:37:50;13.50;64.14
78212;SHT31;67490;52.086;5.122;2023-11-21T16:40:34;13.42;63.74
78212;SHT31;67490;52.086;5.122;2023-11-21T16:43:19;13.16;64.19
78212;SHT31;67490;52.086;5.122;2023-11-21T16:46:04;13.26;64.37
78212;SHT31;67490;52.086;5.122;2023-11-21T16:48:49;13.14;64.47
78212;SHT31;67490;52.086;5.122;2023-11-21T16:51:35;12.94;64.84
78212;SHT31;67490;52.086;5.122;2023-11-21T16:54:20;12.80;65.18
78212;SHT31;67490;52.086;5.122;2023-11-21T16:57:04;12.73;67.59
78212;SHT31;67490;52.086;5.122;2023-11-21T16:59:49;12.77;65.61
78212;SHT31;67490;52.086;5.122;2023-11-21T17:02:35;12.47;65.57
78212;SHT31;67490;52.086;5.122;2023-11-21T17:05:22;12.32;66.74
78212;SHT31;67490;52.086;5.122;2023-11-21T17:08:06;12.01;66.90
78212;SHT31;67490;52.086;5.122;2023-11-21T17:10:54;12.44;66.46
78212;SHT31;67490;52.086;5.122;2023-11-21T17:13:39;12.84;65.67
78212;SHT31;67490;52.086;5.122;2023-11-21T17:16:23;12.46;64.96
78212;SHT31;67490;52.086;5.122;2023-11-21T17:19:09;12.34;66.23
78212;SHT31;67490;52.086;5.122;2023-11-21T17:21:55;12.32;66.52
78212;SHT31;67490;52.086;5.122;2023-11-21T17:24:40;12.63;65.53
78212;SHT31;67490;52.086;5.122;2023-11-21T17:27:26;12.87;64.62